createdAt,value
2019-02-14T00:02:12.785Z,99835.89
2019-02-14T00:04:43.339Z,99834.19
2019-02-14T00:07:13.951Z,99841.03
2019-02-14T00:09:44.403Z,99842.31
2019-02-14T00:12:14.824Z,99841.03
2019-02-14T00:14:45.787Z,99842.34
2019-02-14T00:17:16.343Z,99837.59
2019-02-14T00:19:47.109Z,99848.30
2019-02-14T00:22:17.447Z,99850.48
2019-02-14T00:24:47.764Z,99847.46
2019-02-14T00:27:18.148Z,99849.63
2019-02-14T00:29:49.592Z,99853.46
2019-02-14T00:32:20.117Z,99855.21
2019-02-14T00:34:50.714Z,99847.94
2019-02-14T00:37:21.492Z,99850.92
2019-02-14T00:39:52.230Z,99847.05
2019-02-14T00:42:22.897Z,99856.92
2019-02-14T00:44:53.321Z,99855.64
2019-02-14T00:47:23.991Z,99859.48
2019-02-14T00:49:54.565Z,99865.48
2019-02-14T00:52:25.240Z,99873.63
2019-02-14T00:54:56.044Z,99865.94
2019-02-14T00:57:27.230Z,99871.05
2019-02-14T00:59:57.640Z,99868.93
2019-02-14T01:02:28.068Z,99869.37
2019-02-14T01:04:58.434Z,99864.64
2019-02-14T01:07:28.927Z,99865.50
2019-02-14T01:09:59.495Z,99873.20
2019-02-14T01:12:30.270Z,99876.64
2019-02-14T01:15:01.178Z,99881.34
2019-02-14T01:17:31.805Z,99881.74
2019-02-14T01:20:02.674Z,99883.05
2019-02-14T01:22:34.223Z,99885.98
2019-02-14T01:25:05.080Z,99889.77
2019-02-14T01:27:35.862Z,99894.94
2019-02-14T01:30:07.475Z,99906.05
2019-02-14T01:32:38.209Z,99908.66
2019-02-14T01:35:09.988Z,99916.41
2019-02-14T01:37:40.907Z,99917.70
2019-02-14T01:40:11.167Z,99916.86
2019-02-14T01:42:41.850Z,99918.16
2019-02-14T01:45:12.403Z,99926.74
2019-02-14T01:47:43.195Z,99921.61
2019-02-14T01:50:13.531Z,99926.30
2019-02-14T01:52:44.138Z,99935.71
2019-02-14T01:55:14.622Z,99939.12
2019-02-14T01:57:45.206Z,99944.66
2019-02-14T02:00:16.801Z,99944.19
2019-02-14T02:02:47.564Z,99950.13
2019-02-14T02:05:18.281Z,99946.64
2019-02-14T02:07:48.994Z,99952.98
2019-02-14T02:10:19.975Z,99954.21
2019-02-14T02:12:50.634Z,99956.27
2019-02-14T02:15:21.250Z,99972.09
2019-02-14T02:17:52.008Z,99964.77
2019-02-14T02:20:22.601Z,99974.59
2019-02-14T02:22:53.356Z,99976.73
2019-02-14T02:25:24.610Z,99980.59
2019-02-14T02:27:55.284Z,99989.59
2019-02-14T02:30:25.804Z,99983.14
2019-02-14T02:32:56.963Z,99983.11
2019-02-14T02:35:27.471Z,99990.41
2019-02-14T02:37:58.034Z,99999.41
2019-02-14T02:40:28.553Z,100011.77
2019-02-14T02:42:59.386Z,100007.48
2019-02-14T02:45:30.153Z,100003.65
2019-02-14T02:48:00.968Z,100005.34
2019-02-14T02:50:31.553Z,100012.21
2019-02-14T02:53:02.238Z,100005.84
2019-02-14T02:55:32.511Z,100008.87
2019-02-14T02:58:03.213Z,100013.59
2019-02-14T03:00:33.828Z,100009.80
2019-02-14T03:03:05.636Z,100018.39
2019-02-14T03:05:36.469Z,100017.13
2019-02-14T03:08:07.152Z,100012.05
2019-02-14T03:10:39.026Z,100016.75
2019-02-14T03:13:09.819Z,100017.64
2019-02-14T03:15:40.415Z,100018.49
2019-02-14T03:18:10.775Z,100015.48
2019-02-14T03:20:41.420Z,100015.47
2019-02-14T03:23:13.126Z,100016.77
2019-02-14T03:25:43.713Z,100018.86
2019-02-14T03:28:14.540Z,100032.93
2019-02-14T03:30:45.251Z,100038.01
2019-02-14T03:33:15.833Z,100042.69
2019-02-14T03:35:46.575Z,100042.65
2019-02-14T03:38:17.309Z,100040.45
2019-02-14T03:40:48.138Z,100039.61
2019-02-14T03:43:18.860Z,100051.95
2019-02-14T03:45:50.589Z,100058.75
2019-02-14T03:48:21.261Z,100057.41
2019-02-14T03:50:52.072Z,100056.52
2019-02-14T03:53:22.973Z,100065.07
2019-02-14T03:55:53.757Z,100063.75
2019-02-14T03:58:24.646Z,100064.14
2019-02-14T04:00:55.909Z,100065.34
2019-02-14T04:03:26.767Z,100062.38
2019-02-14T04:05:57.542Z,100068.77
2019-02-14T04:08:28.134Z,100071.33
2019-02-14T04:10:58.835Z,100072.16
2019-02-14T04:13:29.756Z,100076.45
2019-02-14T04:16:00.422Z,100077.73
2019-02-14T04:18:31.192Z,100088.39
2019-02-14T04:21:01.974Z,100088.80
2019-02-14T04:23:32.389Z,100084.06
2019-02-14T04:26:03.517Z,100082.73
2019-02-14T04:28:34.330Z,100079.70
2019-02-14T04:31:05.172Z,100092.90
2019-02-14T04:33:36.077Z,100093.30
2019-02-14T04:36:07.132Z,100092.42
2019-02-14T04:38:37.920Z,100095.39
2019-02-14T04:41:09.028Z,100097.94
2019-02-14T04:43:39.936Z,100103.43
2019-02-14T04:46:10.859Z,100102.06
2019-02-14T04:48:41.999Z,100107.53
2019-02-14T04:51:12.834Z,100111.78
2019-02-14T04:53:43.912Z,100115.20
2019-02-14T04:56:15.022Z,100114.81
2019-02-14T04:58:45.982Z,100124.19
2019-02-14T05:01:17.030Z,100131.87
2019-02-14T05:03:47.797Z,100132.25
2019-02-14T05:06:18.354Z,100128.00
2019-02-14T05:08:49.141Z,100129.72
2019-02-14T05:11:20.047Z,100132.30
2019-02-14T05:13:50.654Z,100137.44
2019-02-14T05:16:21.474Z,100137.42
2019-02-14T05:18:52.211Z,100148.59
2019-02-14T05:21:22.806Z,100139.62
2019-02-14T05:23:54.248Z,100147.38
2019-02-14T05:26:24.844Z,100147.05
2019-02-14T05:28:55.573Z,100161.67
2019-02-14T05:31:26.053Z,100158.35
2019-02-14T05:33:56.878Z,100158.02
2019-02-14T05:36:27.727Z,100158.52
2019-02-14T05:38:58.692Z,100155.61
2019-02-14T05:41:29.444Z,100154.76
2019-02-14T05:43:59.925Z,100154.80
2019-02-14T05:46:31.587Z,100160.39
2019-02-14T05:49:02.805Z,100163.37
2019-02-14T05:51:33.851Z,100162.98
2019-02-14T05:54:04.749Z,100163.73
2019-02-14T05:56:35.181Z,100168.80
2019-02-14T05:59:05.647Z,100173.42
2019-02-14T06:01:36.995Z,100169.95
2019-02-14T06:04:07.725Z,100171.16
2019-02-14T06:06:38.407Z,100173.66
2019-02-14T06:09:09.199Z,100169.84
2019-02-14T06:11:39.982Z,100172.87
2019-02-14T06:14:10.414Z,100178.09
2019-02-14T06:16:42.303Z,100179.80
2019-02-14T06:19:13.079Z,100187.95
2019-02-14T06:21:43.574Z,100187.98
2019-02-14T06:24:14.341Z,100186.33
2019-02-14T06:26:45.743Z,100190.27
2019-02-14T06:29:17.013Z,100194.20
2019-02-14T06:31:47.816Z,100198.83
2019-02-14T06:34:18.522Z,100205.18
2019-02-14T06:36:51.943Z,100203.85
2019-02-14T06:39:22.307Z,100204.75
2019-02-14T06:41:52.959Z,100205.63
2019-02-14T06:44:23.392Z,100222.41
2019-02-14T06:46:54.556Z,100222.15
2019-02-14T06:49:25.341Z,100218.92
2019-02-14T06:51:56.055Z,100224.15
2019-02-14T06:54:27.036Z,100229.36
2019-02-14T06:56:57.698Z,100234.17
2019-02-14T06:59:28.891Z,100241.59
2019-02-14T07:01:59.386Z,100243.71
2019-02-14T07:04:30.273Z,100240.72
2019-02-14T07:07:02.125Z,100255.69
2019-02-14T07:09:32.899Z,100253.16
2019-02-14T07:12:03.828Z,100256.58
2019-02-14T07:14:35.091Z,100258.31
2019-02-14T07:17:05.587Z,100258.75
2019-02-14T07:19:37.183Z,100265.69
2019-02-14T07:22:08.867Z,100273.55
2019-02-14T07:24:39.677Z,100266.38
2019-02-14T07:27:10.521Z,100264.28
2019-02-14T07:29:41.797Z,100273.93
2019-02-14T07:32:12.778Z,100273.25
2019-02-14T07:34:43.412Z,100271.50
2019-02-14T07:37:13.922Z,100277.16
2019-02-14T07:39:44.153Z,100286.20
2019-02-14T07:42:15.208Z,100287.91
2019-02-14T07:44:46.169Z,100295.65
2019-02-14T07:47:16.935Z,100295.67
2019-02-14T07:49:47.616Z,100299.54
2019-02-14T07:52:25.032Z,100298.66
2019-02-14T07:54:51.505Z,100300.80
2019-02-14T07:57:22.474Z,100305.08
2019-02-14T07:59:54.395Z,100313.23
2019-02-14T08:02:25.821Z,100305.95
2019-02-14T08:04:56.725Z,100317.57
2019-02-14T08:07:35.433Z,100311.55
2019-02-14T08:09:59.913Z,100315.84
2019-02-14T08:12:31.129Z,100315.02
2019-02-14T08:15:01.808Z,100323.58
2019-02-14T08:17:33.617Z,100332.63
2019-02-14T08:20:05.039Z,100332.64
2019-02-14T08:22:35.597Z,100345.52
2019-02-14T08:25:07.661Z,100331.33
2019-02-14T08:27:38.731Z,100343.81
2019-02-14T08:30:11.937Z,100335.63
2019-02-14T08:32:42.640Z,100344.66
2019-02-14T08:35:13.806Z,100348.97
2019-02-14T08:37:45.879Z,100346.36
2019-02-14T08:40:19.510Z,100350.22
2019-02-14T08:42:49.821Z,100342.07
2019-02-14T08:45:21.193Z,100345.52
2019-02-14T08:47:51.835Z,100340.36
2019-02-14T08:50:22.762Z,100334.35
2019-02-14T08:52:53.665Z,100339.08
2019-02-14T08:55:24.493Z,100340.38
2019-02-14T08:57:55.294Z,100342.94
2019-02-14T09:00:26.037Z,100334.36
2019-02-14T09:02:56.732Z,100339.09
2019-02-14T09:05:27.342Z,100336.94
2019-02-14T09:07:58.501Z,100340.81
2019-02-14T09:10:29.283Z,100351.13
2019-02-14T09:13:00.208Z,100351.98
2019-02-14T09:15:30.902Z,100355.84
2019-02-14T09:18:01.810Z,100352.41
2019-02-14T09:20:32.809Z,100356.27
2019-02-14T09:23:03.843Z,100359.70
2019-02-14T09:25:34.712Z,100358.83
2019-02-14T09:28:05.140Z,100357.55
2019-02-14T09:30:35.793Z,100364.84
2019-02-14T09:33:06.791Z,100362.69
2019-02-14T09:35:37.692Z,100360.95
2019-02-14T09:38:07.995Z,100367.41
2019-02-14T09:40:38.895Z,100365.25
2019-02-14T09:43:09.752Z,100372.96
2019-02-14T09:45:40.854Z,100375.13
2019-02-14T09:48:11.939Z,100375.98
2019-02-14T09:50:42.757Z,100368.25
2019-02-14T09:53:13.544Z,100372.55
2019-02-14T09:55:44.626Z,100372.09
2019-02-14T09:58:15.085Z,100373.80
2019-02-14T10:00:45.513Z,100378.06
2019-02-14T10:03:17.249Z,100379.73
2019-02-14T10:05:47.993Z,100387.43
2019-02-14T10:08:18.830Z,100386.09
2019-02-14T10:10:50.019Z,100389.49
2019-02-14T10:13:20.605Z,100405.42
2019-02-14T10:15:51.203Z,100400.66
2019-02-14T10:18:21.699Z,100410.94
2019-02-14T10:20:52.280Z,100408.71
2019-02-14T10:23:22.826Z,100417.27
2019-02-14T10:25:54.356Z,100421.07
2019-02-14T10:28:25.060Z,100423.11
2019-02-14T10:30:55.883Z,100415.28
2019-02-14T10:33:26.704Z,100414.77
2019-02-14T10:35:57.110Z,100413.41
2019-02-14T10:38:27.563Z,100415.91
2019-02-14T10:40:58.594Z,100416.75
2019-02-14T10:43:29.560Z,100423.02
2019-02-14T10:46:00.134Z,100411.30
2019-02-14T10:48:30.758Z,100420.72
2019-02-14T10:51:01.405Z,100420.84
2019-02-14T10:53:32.305Z,100416.97
2019-02-14T10:56:03.380Z,100413.45
2019-02-14T10:58:34.389Z,100414.53
2019-02-14T11:01:05.111Z,100421.75
2019-02-14T11:03:35.800Z,100422.58
2019-02-14T11:06:06.526Z,100415.04
2019-02-14T11:08:37.558Z,100423.94
2019-02-14T11:11:08.306Z,100419.23
2019-02-14T11:13:38.749Z,100420.44
2019-02-14T11:16:09.868Z,100412.92
2019-02-14T11:18:44.190Z,100417.48
2019-02-14T11:21:13.124Z,100411.38
2019-02-14T11:23:43.878Z,100419.23
2019-02-14T11:26:14.558Z,100413.98
2019-02-14T11:28:45.548Z,100414.62
2019-02-14T11:31:16.275Z,100414.78
2019-02-14T11:33:46.995Z,100413.20
2019-02-14T11:36:18.710Z,100420.77
2019-02-14T11:38:50.253Z,100417.81
2019-02-14T11:41:20.759Z,100422.58
2019-02-14T11:43:51.537Z,100427.24
2019-02-14T11:46:22.411Z,100418.44
2019-02-14T11:48:53.357Z,100420.12
2019-02-14T11:51:24.229Z,100423.98
2019-02-14T11:53:55.075Z,100425.72
2019-02-14T11:56:26.261Z,100426.97
2019-02-14T11:58:58.076Z,100424.14
2019-02-14T12:01:29.069Z,100426.16
2019-02-14T12:03:59.907Z,100426.07
2019-02-14T12:06:31.676Z,100419.33
2019-02-14T12:09:04.290Z,100425.13
2019-02-14T12:11:35.582Z,100420.89
2019-02-14T12:14:06.230Z,100423.08
2019-02-14T12:16:36.889Z,100426.22
2019-02-14T12:19:07.535Z,100421.44
2019-02-14T12:21:38.234Z,100418.84
2019-02-14T12:24:09.225Z,100411.52
2019-02-14T12:26:39.792Z,100410.53
2019-02-14T12:29:10.620Z,100398.75
2019-02-14T12:31:41.620Z,100395.39
2019-02-14T12:34:12.371Z,100386.84
2019-02-14T12:36:43.090Z,100389.42
2019-02-14T12:39:13.956Z,100389.88
2019-02-14T12:41:44.704Z,100396.77
2019-02-14T12:44:15.565Z,100393.77
2019-02-14T12:46:46.421Z,100395.53
2019-02-14T12:49:17.189Z,100398.18
2019-02-14T12:51:48.020Z,100397.81
2019-02-14T12:54:18.657Z,100406.87
2019-02-14T12:56:49.245Z,100414.67
2019-02-14T12:59:20.195Z,100415.17
2019-02-14T13:01:50.835Z,100418.17
2019-02-14T13:04:21.569Z,100417.32
2019-02-14T13:06:52.269Z,100418.50
2019-02-14T13:09:22.951Z,100416.25
2019-02-14T13:11:53.644Z,100423.59
2019-02-14T13:14:24.226Z,100422.73
2019-02-14T13:16:54.823Z,100418.91
2019-02-14T13:19:25.760Z,100418.46
2019-02-14T13:21:56.560Z,100427.07
2019-02-14T13:24:27.184Z,100419.47
2019-02-14T13:26:57.871Z,100421.66
2019-02-14T13:29:29.671Z,100418.15
2019-02-14T13:32:00.293Z,100423.83
2019-02-14T13:34:30.979Z,100423.41
2019-02-14T13:37:02.277Z,100409.98
2019-02-14T13:39:32.903Z,100407.38
2019-02-14T13:42:03.472Z,100404.37
2019-02-14T13:44:34.271Z,100407.50
2019-02-14T13:47:05.004Z,100423.97
2019-02-14T13:49:35.626Z,100421.08
2019-02-14T13:52:06.479Z,100421.58
2019-02-14T13:54:37.920Z,100431.52
2019-02-14T13:57:08.519Z,100433.31
2019-02-14T13:59:39.720Z,100426.84
2019-02-14T14:02:10.378Z,100423.42
2019-02-14T14:04:41.019Z,100416.94
2019-02-14T14:07:12.122Z,100414.78
2019-02-14T14:09:42.624Z,100408.33
2019-02-14T14:12:13.744Z,100403.14
2019-02-14T14:14:44.546Z,100422.12
2019-02-14T14:17:15.107Z,100422.61
2019-02-14T14:19:45.950Z,100427.37
2019-02-14T14:22:16.710Z,100428.22
2019-02-14T14:24:47.223Z,100439.06
2019-02-14T14:27:17.959Z,100439.11
2019-02-14T14:29:48.477Z,100449.02
2019-02-14T14:32:18.852Z,100450.36
2019-02-14T14:34:49.576Z,100443.01
2019-02-14T14:37:20.326Z,100432.24
2019-02-14T14:39:51.697Z,100433.06
2019-02-14T14:42:40.830Z,100430.06
2019-02-14T14:45:14.907Z,100439.53
2019-02-14T14:47:45.870Z,100448.60
2019-02-14T14:50:16.364Z,100446.47
2019-02-14T14:52:46.898Z,100438.25
2019-02-14T14:55:18.151Z,100445.11
2019-02-14T14:57:48.949Z,100438.23
2019-02-14T15:00:19.714Z,100450.70
2019-02-14T15:02:50.386Z,100436.45
2019-02-14T15:05:22.273Z,100433.06
2019-02-14T15:07:53.314Z,100421.41
2019-02-14T15:10:24.225Z,100423.10
2019-02-14T15:12:54.769Z,100423.53
2019-02-14T15:15:25.564Z,100412.38
2019-02-14T15:17:56.583Z,100422.31
2019-02-14T15:20:30.598Z,100420.61
2019-02-14T15:23:01.183Z,100411.97
2019-02-14T15:25:31.924Z,100425.78
2019-02-14T15:28:03.009Z,100420.59
2019-02-14T15:30:33.936Z,100407.59
2019-02-14T15:33:05.777Z,100403.30
2019-02-14T15:35:36.810Z,100417.96
2019-02-14T15:38:09.767Z,100414.96
2019-02-14T15:40:42.079Z,100424.90
2019-02-14T15:43:13.110Z,100427.09
2019-02-14T15:45:44.490Z,100405.52
2019-02-14T15:48:15.379Z,100416.27
2019-02-14T15:50:46.298Z,100420.55
2019-02-14T15:53:18.770Z,100429.12
2019-02-14T15:55:49.446Z,100447.23
2019-02-14T15:58:20.643Z,100435.59
2019-02-14T16:00:51.822Z,100416.64
2019-02-14T16:03:23.780Z,100440.34
2019-02-14T16:05:54.925Z,100444.23
2019-02-14T16:08:26.053Z,100444.22
2019-02-14T16:10:56.769Z,100430.81
2019-02-14T16:13:29.270Z,100430.81
2019-02-14T16:16:00.798Z,100434.26
2019-02-14T16:18:32.759Z,100437.68
2019-02-14T16:21:04.064Z,100443.33
2019-02-14T16:23:36.233Z,100432.58
2019-02-14T16:26:06.995Z,100437.75
2019-02-14T16:28:38.150Z,100434.30
2019-02-14T16:31:10.387Z,100432.96
2019-02-14T16:33:41.199Z,100435.10
2019-02-14T16:36:12.195Z,100422.66
2019-02-14T16:38:43.869Z,100421.84
2019-02-14T16:41:14.789Z,100422.23
2019-02-14T16:43:45.712Z,100430.91
2019-02-14T16:46:16.131Z,100419.38
2019-02-14T16:48:46.704Z,100420.34
2019-02-14T16:51:55.174Z,100423.86
2019-02-14T16:54:27.307Z,100421.70
2019-02-14T16:56:57.983Z,100425.57
2019-02-14T16:59:28.831Z,100438.45
2019-02-14T17:01:59.634Z,100436.28
2019-02-14T17:04:30.224Z,100432.80
2019-02-14T17:07:01.095Z,100430.63
2019-02-14T17:09:31.950Z,100442.67
2019-02-14T17:12:02.807Z,100446.08
2019-02-14T17:14:33.154Z,100440.91
2019-02-14T17:17:04.628Z,100434.44
2019-02-14T17:19:35.354Z,100431.44
2019-02-14T17:22:05.967Z,100427.54
2019-02-14T17:24:37.103Z,100427.54
2019-02-14T17:27:07.646Z,100432.25
2019-02-14T17:29:38.496Z,100432.25
2019-02-14T17:32:12.037Z,100424.50
2019-02-14T17:34:42.540Z,100427.55
2019-02-14T17:37:13.277Z,100431.86
2019-02-14T17:39:44.429Z,100427.55
2019-02-14T17:42:15.875Z,100434.90
2019-02-14T17:44:46.691Z,100431.91
2019-02-14T17:47:17.689Z,100438.80
2019-02-14T17:49:48.465Z,100437.08
2019-02-14T17:52:19.060Z,100432.33
2019-02-14T17:54:50.742Z,100444.84
2019-02-14T17:57:21.867Z,100445.26
2019-02-14T17:59:53.723Z,100451.30
2019-02-14T18:02:31.000Z,100439.67
2019-02-14T18:05:01.802Z,100432.38
2019-02-14T18:07:33.312Z,100432.38
2019-02-14T18:10:04.352Z,100436.68
2019-02-14T18:12:35.382Z,100439.27
2019-02-14T18:15:09.039Z,100447.44
2019-02-14T18:17:39.750Z,100441.86
2019-02-14T18:20:11.380Z,100438.45
2019-02-14T18:22:42.622Z,100429.44
2019-02-14T18:25:13.239Z,100432.91
2019-02-14T18:27:44.033Z,100436.75
2019-02-14T18:30:14.643Z,100451.84
2019-02-14T18:32:46.888Z,100448.84
2019-02-14T18:35:17.684Z,100463.89
2019-02-14T18:37:48.616Z,100457.42
2019-02-14T18:40:19.655Z,100465.60
2019-02-14T18:42:52.381Z,100472.06
2019-02-14T18:45:22.991Z,100475.98
2019-02-14T18:47:54.004Z,100456.14
2019-02-14T18:50:25.098Z,100455.30
2019-02-14T18:52:56.590Z,100458.30
2019-02-14T18:55:27.203Z,100447.95
2019-02-14T18:57:57.850Z,100453.55
2019-02-14T19:00:29.623Z,100452.25
2019-02-14T19:03:00.859Z,100446.67
2019-02-14T19:05:31.747Z,100452.26
2019-02-14T19:08:03.073Z,100455.26
2019-02-14T19:10:33.774Z,100456.13
2019-02-14T19:13:04.749Z,100449.67
2019-02-14T19:15:35.587Z,100443.63
2019-02-14T19:18:06.654Z,100442.38
2019-02-14T19:20:37.263Z,100444.96
2019-02-14T19:23:08.457Z,100439.32
2019-02-14T19:25:39.330Z,100438.03
2019-02-14T19:28:10.392Z,100443.22
2019-02-14T19:30:41.138Z,100436.74
2019-02-14T19:33:12.942Z,100447.51
2019-02-14T19:35:43.747Z,100453.14
2019-02-14T19:38:15.899Z,100454.02
2019-02-14T19:40:46.593Z,100449.31
2019-02-14T19:43:17.656Z,100452.77
2019-02-14T19:45:48.539Z,100463.90
2019-02-14T19:48:19.531Z,100457.94
2019-02-14T19:50:50.099Z,100464.82
2019-02-14T19:53:20.788Z,100453.59
2019-02-14T19:55:51.577Z,100443.25
2019-02-14T19:58:22.544Z,100437.21
2019-02-14T20:00:53.380Z,100439.80
2019-02-14T20:03:24.003Z,100441.56
2019-02-14T20:05:54.436Z,100430.34
2019-02-14T20:08:25.221Z,100439.38
2019-02-14T20:11:01.566Z,100427.75
2019-02-14T20:13:32.575Z,100413.99
2019-02-14T20:16:05.571Z,100421.30
2019-02-14T20:18:36.665Z,100414.88
2019-02-14T20:21:07.533Z,100427.80
2019-02-14T20:23:38.355Z,100434.68
2019-02-14T20:26:10.443Z,100432.97
2019-02-14T20:28:42.344Z,100423.05
2019-02-14T20:31:14.751Z,100415.75
2019-02-14T20:33:45.959Z,100416.17
2019-02-14T20:36:16.737Z,100408.84
2019-02-14T20:38:47.316Z,100408.41
2019-02-14T20:41:19.123Z,100411.41
2019-02-14T20:44:02.348Z,100420.92
2019-02-14T20:46:34.186Z,100430.39
2019-02-14T20:49:05.374Z,100429.98
2019-02-14T20:51:38.511Z,100433.02
2019-02-14T20:54:11.276Z,100430.44
2019-02-14T20:56:42.559Z,100416.64
2019-02-14T20:59:13.164Z,100408.00
2019-02-14T21:01:43.665Z,100399.78
2019-02-14T21:04:14.228Z,100398.91
2019-02-14T21:06:44.862Z,100398.08
2019-02-14T21:09:15.696Z,100397.20
2019-02-14T21:11:54.219Z,100405.83
2019-02-14T21:14:18.554Z,100408.41
2019-02-14T21:16:49.193Z,100388.56
2019-02-14T21:19:19.705Z,100391.15
2019-02-14T21:21:51.014Z,100393.31
2019-02-14T21:24:21.407Z,100383.39
2019-02-14T21:26:52.206Z,100385.96
2019-02-14T21:29:22.823Z,100388.14
2019-02-14T21:31:53.196Z,100395.02
2019-02-14T21:34:24.621Z,100405.77
2019-02-14T21:36:55.616Z,100406.19
2019-02-14T21:39:26.195Z,100396.30
2019-02-14T21:42:17.714Z,100391.98
2019-02-14T21:44:29.110Z,100385.98
2019-02-14T21:47:01.347Z,100392.03
2019-02-14T21:49:31.809Z,100384.70
2019-02-14T21:52:02.289Z,100389.86
2019-02-14T21:54:36.344Z,100383.86
2019-02-14T21:57:07.060Z,100377.81
2019-02-14T21:59:37.606Z,100384.73
2019-02-14T22:02:08.256Z,100381.28
2019-02-14T22:04:38.744Z,100370.94
2019-02-14T22:07:09.365Z,100365.34
2019-02-14T22:09:39.843Z,100350.27
2019-02-14T22:12:10.482Z,100336.52
2019-02-14T22:14:41.080Z,100333.48
2019-02-14T22:17:11.829Z,100333.52
2019-02-14T22:19:43.015Z,100332.66
2019-02-14T22:22:13.602Z,100323.20
2019-02-14T22:24:44.065Z,100322.33
2019-02-14T22:27:14.716Z,100312.44
2019-02-14T22:29:45.173Z,100308.98
2019-02-14T22:32:15.655Z,100312.44
2019-02-14T22:34:47.098Z,100311.62
2019-02-14T22:37:17.706Z,100318.92
2019-02-14T22:39:48.080Z,100319.37
2019-02-14T22:42:18.710Z,100309.88
2019-02-14T22:44:49.312Z,100308.56
2019-02-14T22:47:20.422Z,100295.19
2019-02-14T22:49:51.600Z,100288.30
2019-02-14T22:52:22.223Z,100285.31
2019-02-14T22:54:52.691Z,100297.77
2019-02-14T22:57:22.971Z,100313.69
2019-02-14T22:59:53.413Z,100307.27
2019-02-14T23:02:23.938Z,100305.92
2019-02-14T23:04:54.782Z,100303.33
2019-02-14T23:07:25.577Z,100298.58
2019-02-14T23:09:57.650Z,100290.83
2019-02-14T23:12:28.867Z,100286.53
2019-02-14T23:14:59.457Z,100287.83
2019-02-14T23:17:30.904Z,100276.61
2019-02-14T23:20:01.527Z,100271.03
2019-02-14T23:22:31.938Z,100268.92
2019-02-14T23:25:03.111Z,100273.67
2019-02-14T23:27:33.735Z,100276.21
2019-02-14T23:30:04.800Z,100280.96
2019-02-14T23:32:35.270Z,100281.78
2019-02-14T23:35:05.749Z,100282.66
2019-02-14T23:37:36.577Z,100279.20
2019-02-14T23:40:07.136Z,100273.63
2019-02-14T23:42:37.724Z,100271.49
2019-02-14T23:45:08.738Z,100268.44
2019-02-14T23:47:39.241Z,100272.33
2019-02-14T23:50:09.770Z,100276.19
2019-02-14T23:52:40.877Z,100277.48
2019-02-14T23:55:11.515Z,100276.20
2019-02-14T23:57:42.652Z,100272.30
